Silver Star, Montana
Current Conditions -  °F | °C
As of 9:53 AM on Tuesday 21 Oct 2014 (Local Time) from KBTM Reporting Station
Clear Clear  
Wind Chill: 14°   Ceiling: Unl
Heat Index: 14°   Visibility: 10mi
Dew Point:   Wind: 3mph
Humidity: 49%   Direction: 210°SSW
Pressure: 29.74"   Gusts: NA
Location:  45.69°N, 112.28°W
Report Text: KBTM 211553Z AUTO 21003KT 10SM CLR 14/04 A2974 RMK AO2 SLP027 T01440039
Loading
Personal Weather Stations






























Interactive Weather Map
Tropical Storm Tracking
New forecast layout! Learn more

10-Day Weather Forecast

Advertisements
Track Severe Weather on mobile